AMX1020 MMHO-MMML
Flight info
| Callsign | AMX1020 |
|---|---|
| Flight time | 0h 57m |
| Altitude | 32000 |
| Route | LIDUK1B LIDUK UJ7 MXL |
| Aircraft | B738/M-SABDFGRVYL/LB2 |
Departure
| Time | 2026-04-25 21:16 |
|---|---|
| Airport | General Ignacio L. Pesqueira International Airport (MMHO) |
Arrival
| Time | 2026-04-25 22:13 |
|---|---|
| Airport | General Rodolfo Sánchez Taboada International Airport (MMML) |
| Time | Latitude | Longitude | Altitude | Speed | Heading |
|---|---|---|---|---|---|
| 2026-04-25 20:53 | 29.09096 | -111.05196 | 637 ft | 0 kts | 150° |
| 2026-04-25 21:08 | 29.09104 | -111.05200 | 637 ft | 2 kts | 155° |
| 2026-04-25 21:09 | 29.09129 | -111.05216 | 637 ft | 1 kts | 150° |
| 2026-04-25 21:09 | 29.09138 | -111.05222 | 636 ft | 2 kts | 129° |
| 2026-04-25 21:09 | 29.09144 | -111.05238 | 636 ft | 2 kts | 92° |
| 2026-04-25 21:10 | 29.09142 | -111.05251 | 636 ft | 0 kts | 64° |
| 2026-04-25 21:10 | 29.09138 | -111.05258 | 636 ft | 1 kts | 60° |
| 2026-04-25 21:10 | 29.09138 | -111.05259 | 636 ft | 0 kts | 60° |
| 2026-04-25 21:12 | 29.09138 | -111.05258 | 636 ft | 0 kts | 60° |
| 2026-04-25 21:12 | 29.09142 | -111.05250 | 636 ft | 7 kts | 60° |
| 2026-04-25 21:12 | 29.09175 | -111.05184 | 636 ft | 20 kts | 63° |
| 2026-04-25 21:13 | 29.09271 | -111.04992 | 639 ft | 19 kts | 51° |
| 2026-04-25 21:13 | 29.09343 | -111.04871 | 642 ft | 17 kts | 58° |
| 2026-04-25 21:13 | 29.09371 | -111.04748 | 643 ft | 15 kts | 92° |
| 2026-04-25 21:13 | 29.09378 | -111.04630 | 643 ft | 14 kts | 56° |
| 2026-04-25 21:14 | 29.09445 | -111.04543 | 645 ft | 13 kts | 53° |
| 2026-04-25 21:14 | 29.09508 | -111.04446 | 647 ft | 18 kts | 54° |
| 2026-04-25 21:14 | 29.09584 | -111.04325 | 647 ft | 18 kts | 54° |
| 2026-04-25 21:14 | 29.09658 | -111.04207 | 648 ft | 17 kts | 55° |
| 2026-04-25 21:15 | 29.09751 | -111.04172 | 649 ft | 15 kts | 335° |
| 2026-04-25 21:15 | 29.09839 | -111.04225 | 651 ft | 13 kts | 328° |
| 2026-04-25 21:15 | 29.09829 | -111.04309 | 651 ft | 11 kts | 239° |
| 2026-04-25 21:15 | 29.09773 | -111.04415 | 648 ft | 34 kts | 238° |
| 2026-04-25 21:16 | 29.09481 | -111.04964 | 641 ft | 126 kts | 239° |
| 2026-04-25 21:16 | 29.08879 | -111.06089 | 641 ft | 199 kts | 238° |
| 2026-04-25 21:16 | 29.08245 | -111.07367 | 1874 ft | 186 kts | 241° |
| 2026-04-25 21:16 | 29.07581 | -111.08714 | 2527 ft | 207 kts | 237° |
| 2026-04-25 21:17 | 29.06757 | -111.10078 | 3357 ft | 213 kts | 234° |
| 2026-04-25 21:17 | 29.05883 | -111.11602 | 3884 ft | 240 kts | 238° |
| 2026-04-25 21:17 | 29.05019 | -111.13268 | 4665 ft | 253 kts | 241° |
| 2026-04-25 21:17 | 29.04513 | -111.15196 | 5432 ft | 267 kts | 269° |
| 2026-04-25 21:18 | 29.04993 | -111.17230 | 6382 ft | 275 kts | 300° |
| 2026-04-25 21:18 | 29.06330 | -111.18766 | 7453 ft | 280 kts | 326° |
| 2026-04-25 21:18 | 29.08090 | -111.19737 | 8462 ft | 284 kts | 334° |
| 2026-04-25 21:18 | 29.09896 | -111.20584 | 9417 ft | 287 kts | 334° |
| 2026-04-25 21:19 | 29.11734 | -111.21443 | 10348 ft | 290 kts | 333° |
| 2026-04-25 21:19 | 29.13641 | -111.22355 | 10997 ft | 304 kts | 332° |
| 2026-04-25 21:19 | 29.15642 | -111.23328 | 11635 ft | 318 kts | 332° |
| 2026-04-25 21:19 | 29.17711 | -111.24340 | 12165 ft | 335 kts | 332° |
| 2026-04-25 21:20 | 29.19913 | -111.25418 | 12701 ft | 351 kts | 332° |
| 2026-04-25 21:20 | 29.20673 | -111.25790 | 12879 ft | 356 kts | 332° |
| 2026-04-25 21:20 | 29.24579 | -111.27698 | 13889 ft | 376 kts | 332° |
| 2026-04-25 21:20 | 29.27018 | -111.28886 | 14656 ft | 383 kts | 331° |
| 2026-04-25 21:21 | 29.29448 | -111.30065 | 15548 ft | 385 kts | 331° |
| 2026-04-25 21:21 | 29.31919 | -111.31267 | 16320 ft | 390 kts | 330° |
| 2026-04-25 21:21 | 29.34446 | -111.32498 | 17145 ft | 393 kts | 330° |
| 2026-04-25 21:21 | 29.36859 | -111.33680 | 17860 ft | 397 kts | 330° |
| 2026-04-25 21:22 | 29.39357 | -111.35012 | 18641 ft | 398 kts | 326° |
| 2026-04-25 21:22 | 29.41776 | -111.36582 | 19370 ft | 397 kts | 320° |
| 2026-04-25 21:22 | 29.44012 | -111.38377 | 20068 ft | 397 kts | 316° |
| 2026-04-25 21:22 | 29.46193 | -111.40355 | 20777 ft | 399 kts | 314° |
| 2026-04-25 21:23 | 29.48331 | -111.42408 | 21517 ft | 401 kts | 313° |
| 2026-04-25 21:23 | 29.50445 | -111.44485 | 22183 ft | 405 kts | 312° |
| 2026-04-25 21:23 | 29.52574 | -111.46588 | 22889 ft | 407 kts | 311° |
| 2026-04-25 21:23 | 29.54732 | -111.48719 | 23476 ft | 412 kts | 312° |
| 2026-04-25 21:24 | 29.56920 | -111.50874 | 24000 ft | 418 kts | 311° |
| 2026-04-25 21:24 | 29.59156 | -111.53067 | 24663 ft | 421 kts | 311° |
| 2026-04-25 21:24 | 29.61400 | -111.55262 | 25195 ft | 426 kts | 311° |
| 2026-04-25 21:24 | 29.63653 | -111.57462 | 25727 ft | 430 kts | 311° |
| 2026-04-25 21:25 | 29.65926 | -111.59680 | 26308 ft | 432 kts | 311° |
| 2026-04-25 21:25 | 29.68240 | -111.61936 | 26809 ft | 437 kts | 311° |
| 2026-04-25 21:25 | 29.70576 | -111.64217 | 27318 ft | 441 kts | 311° |
| 2026-04-25 21:25 | 29.72928 | -111.66515 | 27769 ft | 446 kts | 311° |
| 2026-04-25 21:26 | 29.75276 | -111.68808 | 28328 ft | 448 kts | 310° |
| 2026-04-25 21:26 | 29.77673 | -111.71150 | 28649 ft | 453 kts | 310° |
| 2026-04-25 21:26 | 29.82455 | -111.75816 | 29395 ft | 448 kts | 310° |
| 2026-04-25 21:27 | 29.84800 | -111.78097 | 30353 ft | 440 kts | 310° |
| 2026-04-25 21:27 | 29.87112 | -111.80345 | 31295 ft | 432 kts | 310° |
| 2026-04-25 21:27 | 29.89404 | -111.82584 | 31825 ft | 431 kts | 310° |
| 2026-04-25 21:27 | 29.91678 | -111.84820 | 31954 ft | 434 kts | 310° |
| 2026-04-25 21:28 | 29.96229 | -111.89294 | 31956 ft | 429 kts | 310° |
| 2026-04-25 21:28 | 30.00774 | -111.93770 | 31953 ft | 429 kts | 309° |
| 2026-04-25 21:29 | 30.05357 | -111.98290 | 31945 ft | 430 kts | 309° |
| 2026-04-25 21:29 | 30.09907 | -112.02779 | 31934 ft | 432 kts | 309° |
| 2026-04-25 21:30 | 30.14485 | -112.07291 | 31927 ft | 430 kts | 309° |
| 2026-04-25 21:30 | 30.18272 | -112.11032 | 31925 ft | 432 kts | 309° |
| 2026-04-25 21:31 | 30.23609 | -112.16313 | 31915 ft | 431 kts | 309° |
| 2026-04-25 21:31 | 30.28138 | -112.20795 | 31912 ft | 430 kts | 309° |
| 2026-04-25 21:32 | 30.32688 | -112.25308 | 31906 ft | 429 kts | 309° |
| 2026-04-25 21:32 | 30.37229 | -112.29814 | 31907 ft | 432 kts | 309° |
| 2026-04-25 21:33 | 30.41775 | -112.34340 | 31899 ft | 429 kts | 309° |
| 2026-04-25 21:33 | 30.46290 | -112.38835 | 31891 ft | 430 kts | 309° |
| 2026-04-25 21:34 | 30.50837 | -112.43366 | 31879 ft | 431 kts | 309° |
| 2026-04-25 21:34 | 30.55369 | -112.47889 | 31878 ft | 429 kts | 309° |
| 2026-04-25 21:35 | 30.59873 | -112.52390 | 31872 ft | 430 kts | 309° |
| 2026-04-25 21:35 | 30.64411 | -112.56934 | 31866 ft | 429 kts | 309° |
| 2026-04-25 21:36 | 30.68925 | -112.61454 | 31859 ft | 430 kts | 308° |
| 2026-04-25 21:36 | 30.73423 | -112.65968 | 31848 ft | 429 kts | 308° |
| 2026-04-25 21:37 | 30.77182 | -112.69746 | 31847 ft | 429 kts | 308° |
| 2026-04-25 21:37 | 30.82443 | -112.75036 | 31851 ft | 429 kts | 308° |
| 2026-04-25 21:38 | 30.86968 | -112.79593 | 31852 ft | 428 kts | 308° |
| 2026-04-25 21:38 | 30.91462 | -112.84122 | 31851 ft | 427 kts | 308° |
| 2026-04-25 21:39 | 30.95947 | -112.88650 | 31848 ft | 427 kts | 308° |
| 2026-04-25 21:39 | 31.00441 | -112.93193 | 31846 ft | 426 kts | 308° |
| 2026-04-25 21:40 | 31.04922 | -112.97733 | 31847 ft | 428 kts | 308° |
| 2026-04-25 21:40 | 31.09394 | -113.02264 | 31851 ft | 428 kts | 308° |
| 2026-04-25 21:41 | 31.13889 | -113.06826 | 31850 ft | 428 kts | 308° |
| 2026-04-25 21:41 | 31.18378 | -113.11388 | 31849 ft | 427 kts | 308° |
| 2026-04-25 21:42 | 31.22882 | -113.15974 | 31854 ft | 428 kts | 308° |
| 2026-04-25 21:42 | 31.27346 | -113.20521 | 31853 ft | 427 kts | 308° |
| 2026-04-25 21:43 | 31.31836 | -113.25101 | 31852 ft | 427 kts | 308° |
| 2026-04-25 21:43 | 31.36227 | -113.29784 | 31855 ft | 422 kts | 303° |
| 2026-04-25 21:44 | 31.40027 | -113.34887 | 31849 ft | 414 kts | 298° |
| 2026-04-25 21:45 | 31.45303 | -113.42808 | 31841 ft | 412 kts | 297° |
| 2026-04-25 21:45 | 31.48788 | -113.48082 | 31400 ft | 403 kts | 297° |
| 2026-04-25 21:45 | 31.50506 | -113.50671 | 30892 ft | 402 kts | 297° |
| 2026-04-25 21:46 | 31.52213 | -113.53249 | 30200 ft | 403 kts | 298° |
| 2026-04-25 21:46 | 31.53942 | -113.55862 | 29404 ft | 405 kts | 298° |
| 2026-04-25 21:46 | 31.55649 | -113.58444 | 28561 ft | 407 kts | 298° |
| 2026-04-25 21:46 | 31.57403 | -113.61096 | 27645 ft | 410 kts | 299° |
| 2026-04-25 21:47 | 31.59165 | -113.63760 | 26690 ft | 414 kts | 299° |
| 2026-04-25 21:47 | 31.60931 | -113.66429 | 25697 ft | 418 kts | 299° |
| 2026-04-25 21:47 | 31.62690 | -113.69082 | 25005 ft | 415 kts | 299° |
| 2026-04-25 21:47 | 31.64468 | -113.71754 | 24315 ft | 412 kts | 299° |
| 2026-04-25 21:48 | 31.66223 | -113.74393 | 23601 ft | 410 kts | 300° |
| 2026-04-25 21:48 | 31.67955 | -113.77001 | 22886 ft | 407 kts | 300° |
| 2026-04-25 21:48 | 31.69686 | -113.79613 | 22175 ft | 405 kts | 300° |
| 2026-04-25 21:48 | 31.71392 | -113.82189 | 21476 ft | 402 kts | 300° |
| 2026-04-25 21:49 | 31.73102 | -113.84777 | 20761 ft | 400 kts | 300° |
| 2026-04-25 21:49 | 31.74794 | -113.87340 | 20052 ft | 398 kts | 300° |
| 2026-04-25 21:49 | 31.76474 | -113.89888 | 19350 ft | 395 kts | 301° |
| 2026-04-25 21:49 | 31.78150 | -113.92433 | 18658 ft | 392 kts | 301° |
| 2026-04-25 21:50 | 31.79821 | -113.94971 | 18045 ft | 388 kts | 301° |
| 2026-04-25 21:50 | 31.81446 | -113.97445 | 17344 ft | 385 kts | 301° |
| 2026-04-25 21:50 | 31.83069 | -113.99919 | 16651 ft | 383 kts | 301° |
| 2026-04-25 21:50 | 31.84143 | -114.01558 | 16201 ft | 381 kts | 302° |
| 2026-04-25 21:51 | 31.86305 | -114.04855 | 15283 ft | 378 kts | 302° |
| 2026-04-25 21:51 | 31.87891 | -114.07275 | 14605 ft | 376 kts | 302° |
| 2026-04-25 21:51 | 31.89475 | -114.09692 | 13962 ft | 373 kts | 303° |
| 2026-04-25 21:51 | 31.91048 | -114.12095 | 13282 ft | 372 kts | 303° |
| 2026-04-25 21:52 | 31.92612 | -114.14484 | 12599 ft | 370 kts | 303° |
| 2026-04-25 21:52 | 31.94177 | -114.16874 | 11941 ft | 368 kts | 303° |
| 2026-04-25 21:52 | 31.95747 | -114.19274 | 11315 ft | 364 kts | 303° |
| 2026-04-25 21:52 | 31.97268 | -114.21599 | 10962 ft | 354 kts | 303° |
| 2026-04-25 21:53 | 31.98750 | -114.23860 | 10769 ft | 339 kts | 303° |
| 2026-04-25 21:53 | 32.00165 | -114.26021 | 10613 ft | 325 kts | 303° |
| 2026-04-25 21:53 | 32.01517 | -114.28089 | 10463 ft | 312 kts | 303° |
| 2026-04-25 21:53 | 32.02813 | -114.30077 | 10311 ft | 300 kts | 303° |
| 2026-04-25 21:54 | 32.04047 | -114.31972 | 10165 ft | 289 kts | 303° |
| 2026-04-25 21:54 | 32.05253 | -114.33827 | 9944 ft | 282 kts | 303° |
| 2026-04-25 21:54 | 32.06438 | -114.35655 | 9564 ft | 280 kts | 303° |
| 2026-04-25 21:54 | 32.07624 | -114.37485 | 9190 ft | 279 kts | 303° |
| 2026-04-25 21:55 | 32.08785 | -114.39273 | 8839 ft | 277 kts | 303° |
| 2026-04-25 21:55 | 32.09953 | -114.41070 | 8479 ft | 276 kts | 304° |
| 2026-04-25 21:55 | 32.11120 | -114.42865 | 8120 ft | 274 kts | 304° |
| 2026-04-25 21:55 | 32.12280 | -114.44649 | 7767 ft | 272 kts | 304° |
| 2026-04-25 21:56 | 32.13430 | -114.46420 | 7414 ft | 271 kts | 304° |
| 2026-04-25 21:56 | 32.14192 | -114.47594 | 7184 ft | 270 kts | 304° |
| 2026-04-25 21:56 | 32.15694 | -114.49912 | 6728 ft | 268 kts | 304° |
| 2026-04-25 21:56 | 32.16826 | -114.51660 | 6382 ft | 266 kts | 304° |
| 2026-04-25 21:57 | 32.17943 | -114.53387 | 6055 ft | 261 kts | 305° |
| 2026-04-25 21:57 | 32.19028 | -114.55061 | 5707 ft | 253 kts | 304° |
| 2026-04-25 21:57 | 32.20063 | -114.56659 | 5383 ft | 239 kts | 304° |
| 2026-04-25 21:57 | 32.21041 | -114.58170 | 5098 ft | 226 kts | 304° |
| 2026-04-25 21:58 | 32.21970 | -114.59608 | 4814 ft | 213 kts | 304° |
| 2026-04-25 21:58 | 32.22837 | -114.60952 | 4554 ft | 202 kts | 304° |
| 2026-04-25 21:58 | 32.23668 | -114.62241 | 4296 ft | 192 kts | 304° |
| 2026-04-25 21:58 | 32.24451 | -114.63455 | 4142 ft | 176 kts | 304° |
| 2026-04-25 21:59 | 32.25165 | -114.64561 | 3940 ft | 162 kts | 303° |
| 2026-04-25 21:59 | 32.25825 | -114.65590 | 3683 ft | 155 kts | 303° |
| 2026-04-25 21:59 | 32.26495 | -114.66635 | 3204 ft | 167 kts | 303° |
| 2026-04-25 22:00 | 32.27912 | -114.68828 | 2855 ft | 172 kts | 303° |
| 2026-04-25 22:00 | 32.28640 | -114.69955 | 2771 ft | 172 kts | 304° |
| 2026-04-25 22:00 | 32.29365 | -114.71078 | 2699 ft | 171 kts | 304° |
| 2026-04-25 22:00 | 32.30095 | -114.72212 | 2626 ft | 171 kts | 303° |
| 2026-04-25 22:01 | 32.30816 | -114.73329 | 2561 ft | 173 kts | 304° |
| 2026-04-25 22:01 | 32.31553 | -114.74477 | 2483 ft | 173 kts | 303° |
| 2026-04-25 22:01 | 32.32279 | -114.75603 | 2398 ft | 172 kts | 304° |
| 2026-04-25 22:01 | 32.32761 | -114.76354 | 2349 ft | 172 kts | 304° |
| 2026-04-25 22:02 | 32.33722 | -114.77850 | 2252 ft | 172 kts | 303° |
| 2026-04-25 22:02 | 32.34448 | -114.78978 | 2181 ft | 172 kts | 303° |
| 2026-04-25 22:02 | 32.35178 | -114.80113 | 2111 ft | 172 kts | 303° |
| 2026-04-25 22:02 | 32.35901 | -114.81230 | 2041 ft | 171 kts | 303° |
| 2026-04-25 22:03 | 32.36605 | -114.82320 | 2031 ft | 159 kts | 303° |
| 2026-04-25 22:03 | 32.37254 | -114.83331 | 1933 ft | 149 kts | 303° |
| 2026-04-25 22:03 | 32.37909 | -114.84362 | 1822 ft | 165 kts | 303° |
| 2026-04-25 22:03 | 32.38645 | -114.85518 | 1856 ft | 186 kts | 304° |
| 2026-04-25 22:04 | 32.39443 | -114.86751 | 1845 ft | 190 kts | 304° |
| 2026-04-25 22:04 | 32.40254 | -114.88001 | 1844 ft | 189 kts | 304° |
| 2026-04-25 22:04 | 32.41048 | -114.89233 | 1842 ft | 190 kts | 303° |
| 2026-04-25 22:04 | 32.41837 | -114.90461 | 1850 ft | 179 kts | 304° |
| 2026-04-25 22:05 | 32.42570 | -114.91600 | 1832 ft | 169 kts | 303° |
| 2026-04-25 22:05 | 32.43278 | -114.92711 | 1842 ft | 171 kts | 303° |
| 2026-04-25 22:05 | 32.43990 | -114.93816 | 1842 ft | 169 kts | 303° |
| 2026-04-25 22:05 | 32.44708 | -114.94932 | 1860 ft | 167 kts | 303° |
| 2026-04-25 22:06 | 32.45380 | -114.95972 | 1839 ft | 152 kts | 303° |
| 2026-04-25 22:06 | 32.45999 | -114.96944 | 1845 ft | 147 kts | 302° |
| 2026-04-25 22:06 | 32.46623 | -114.97920 | 1851 ft | 146 kts | 302° |
| 2026-04-25 22:06 | 32.47234 | -114.98873 | 1852 ft | 146 kts | 302° |
| 2026-04-25 22:07 | 32.47845 | -114.99825 | 1849 ft | 145 kts | 302° |
| 2026-04-25 22:07 | 32.48282 | -115.00440 | 1850 ft | 146 kts | 309° |
| 2026-04-25 22:07 | 32.49329 | -115.01489 | 1850 ft | 148 kts | 315° |
| 2026-04-25 22:07 | 32.50117 | -115.02287 | 1849 ft | 148 kts | 313° |
| 2026-04-25 22:08 | 32.50892 | -115.03101 | 1852 ft | 148 kts | 313° |
| 2026-04-25 22:08 | 32.51664 | -115.03902 | 1850 ft | 148 kts | 313° |
| 2026-04-25 22:08 | 32.52450 | -115.04713 | 1854 ft | 148 kts | 313° |
| 2026-04-25 22:08 | 32.53219 | -115.05513 | 1853 ft | 148 kts | 313° |
| 2026-04-25 22:09 | 32.53997 | -115.06325 | 1849 ft | 147 kts | 313° |
| 2026-04-25 22:09 | 32.54720 | -115.07164 | 1847 ft | 145 kts | 302° |
| 2026-04-25 22:09 | 32.55223 | -115.08188 | 1851 ft | 139 kts | 293° |
| 2026-04-25 22:09 | 32.55690 | -115.09174 | 1852 ft | 137 kts | 296° |
| 2026-04-25 22:10 | 32.56222 | -115.10126 | 1850 ft | 141 kts | 303° |
| 2026-04-25 22:10 | 32.56824 | -115.11030 | 1844 ft | 139 kts | 299° |
| 2026-04-25 22:10 | 32.57325 | -115.12021 | 1748 ft | 138 kts | 294° |
| 2026-04-25 22:10 | 32.57779 | -115.13020 | 1631 ft | 138 kts | 295° |
| 2026-04-25 22:11 | 32.58320 | -115.13972 | 1531 ft | 140 kts | 297° |
| 2026-04-25 22:11 | 32.58795 | -115.14985 | 1442 ft | 140 kts | 296° |
| 2026-04-25 22:11 | 32.59320 | -115.15977 | 1218 ft | 143 kts | 296° |
| 2026-04-25 22:11 | 32.59797 | -115.17011 | 1072 ft | 143 kts | 292° |
| 2026-04-25 22:12 | 32.60262 | -115.18066 | 908 ft | 146 kts | 297° |
| 2026-04-25 22:12 | 32.60738 | -115.19112 | 782 ft | 144 kts | 295° |
| 2026-04-25 22:12 | 32.61216 | -115.20157 | 579 ft | 145 kts | 295° |
| 2026-04-25 22:12 | 32.61541 | -115.20861 | 459 ft | 147 kts | 296° |
| 2026-04-25 22:13 | 32.62186 | -115.22242 | 238 ft | 140 kts | 295° |
| 2026-04-25 22:13 | 32.62626 | -115.23244 | 66 ft | 128 kts | 297° |
| 2026-04-25 22:13 | 32.62923 | -115.23887 | 68 ft | 50 kts | 297° |
| 2026-04-25 22:13 | 32.63041 | -115.24223 | 67 ft | 47 kts | 269° |
| 2026-04-25 22:14 | 32.63034 | -115.24493 | 69 ft | 27 kts | 268° |
| 2026-04-25 22:14 | 32.62935 | -115.24654 | 69 ft | 19 kts | 211° |
| 2026-04-25 22:14 | 32.62886 | -115.24686 | 69 ft | 0 kts | 208° |